TRN weather

Turin Airport
Torino, Piedmont, Italy

Public forecast

Using degrees Celsius for public forecast. Weather courtesy of forecast.io.

METAR (pilot weather report)

Retrieved 2019/05/24 06:20 UTC (9 minutes ago):

LIMF 240620Z VRB02KT 9999 BKN060 17/13 Q1014

TAF (pilot weather forecast)

Retrieved 2019/05/24 06:00 UTC (29 minutes ago):

TAF LIMF 240500Z 2406/2506 VRB05KT 9999 SCT040 PROB40 TEMPO 2422/2506 TSRA